sensor_id;sensor_type;location;lat;lon;timestamp;pressure;altitude;pressure_sealevel;temperature
65290;BMP180;51893;59.754;10.110;2024-03-25T00:00:21;100051.80;;;4.70
65290;BMP180;51893;59.754;10.110;2024-03-25T00:03:12;100048.80;;;4.80
65290;BMP180;51893;59.754;10.110;2024-03-25T00:05:39;100053.80;;;4.80
65290;BMP180;51893;59.754;10.110;2024-03-25T00:08:08;100056.20;;;4.88
65290;BMP180;51893;59.754;10.110;2024-03-25T00:10:37;100059.20;;;4.90
65290;BMP180;51893;59.754;10.110;2024-03-25T00:13:04;100061.60;;;4.90
65290;BMP180;51893;59.754;10.110;2024-03-25T00:15:31;100067.00;;;4.80
65290;BMP180;51893;59.754;10.110;2024-03-25T00:18:00;100073.40;;;4.90
65290;BMP180;51893;59.754;10.110;2024-03-25T00:20:33;100074.80;;;4.90
65290;BMP180;51893;59.754;10.110;2024-03-25T00:23:00;100074.40;;;4.80
65290;BMP180;51893;59.754;10.110;2024-03-25T00:25:26;100074.80;;;4.80
65290;BMP180;51893;59.754;10.110;2024-03-25T00:27:53;100072.20;;;4.70
65290;BMP180;51893;59.754;10.110;2024-03-25T00:30:20;100072.60;;;4.70
65290;BMP180;51893;59.754;10.110;2024-03-25T00:32:48;100079.20;;;4.70
65290;BMP180;51893;59.754;10.110;2024-03-25T00:35:15;100078.60;;;4.70
65290;BMP180;51893;59.754;10.110;2024-03-25T00:37:42;100080.20;;;4.72
65290;BMP180;51893;59.754;10.110;2024-03-25T00:40:08;100080.60;;;4.80
65290;BMP180;51893;59.754;10.110;2024-03-25T00:42:35;100077.80;;;4.80
65290;BMP180;51893;59.754;10.110;2024-03-25T00:45:03;100081.40;;;4.90
65290;BMP180;51893;59.754;10.110;2024-03-25T00:47:32;100077.80;;;4.90
65290;BMP180;51893;59.754;10.110;2024-03-25T00:49:59;100084.00;;;4.90
65290;BMP180;51893;59.754;10.110;2024-03-25T00:52:28;100086.20;;;4.80
65290;BMP180;51893;59.754;10.110;2024-03-25T00:54:56;100083.80;;;4.80
65290;BMP180;51893;59.754;10.110;2024-03-25T00:57:23;100086.00;;;4.74
65290;BMP180;51893;59.754;10.110;2024-03-25T00:59:49;100083.40;;;4.70
65290;BMP180;51893;59.754;10.110;2024-03-25T01:02:18;100082.60;;;4.70
65290;BMP180;51893;59.754;10.110;2024-03-25T01:04:46;100086.60;;;4.62
65290;BMP180;51893;59.754;10.110;2024-03-25T01:07:15;100085.80;;;4.60
65290;BMP180;51893;59.754;10.110;2024-03-25T01:09:41;100087.00;;;4.64
65290;BMP180;51893;59.754;10.110;2024-03-25T01:12:08;100087.60;;;4.72
65290;BMP180;51893;59.754;10.110;2024-03-25T01:14:35;100086.20;;;4.80
65290;BMP180;51893;59.754;10.110;2024-03-25T01:17:01;100089.00;;;4.80
65290;BMP180;51893;59.754;10.110;2024-03-25T01:19:28;100091.00;;;4.74
65290;BMP180;51893;59.754;10.110;2024-03-25T01:21:55;100093.20;;;4.70
65290;BMP180;51893;59.754;10.110;2024-03-25T01:24:21;100093.20;;;4.68
65290;BMP180;51893;59.754;10.110;2024-03-25T01:26:50;100095.40;;;4.70
65290;BMP180;51893;59.754;10.110;2024-03-25T01:29:18;100094.20;;;4.70
65290;BMP180;51893;59.754;10.110;2024-03-25T01:31:45;100095.40;;;4.80
65290;BMP180;51893;59.754;10.110;2024-03-25T01:34:12;100096.20;;;4.80
65290;BMP180;51893;59.754;10.110;2024-03-25T01:36:39;100094.20;;;4.86
65290;BMP180;51893;59.754;10.110;2024-03-25T01:39:06;100095.80;;;4.88
65290;BMP180;51893;59.754;10.110;2024-03-25T01:41:33;100094.80;;;4.80
65290;BMP180;51893;59.754;10.110;2024-03-25T01:44:00;100096.00;;;4.80
65290;BMP180;51893;59.754;10.110;2024-03-25T01:46:30;100096.80;;;4.74
65290;BMP180;51893;59.754;10.110;2024-03-25T01:48:59;100100.00;;;4.70
65290;BMP180;51893;59.754;10.110;2024-03-25T01:51:28;100103.60;;;4.60
65290;BMP180;51893;59.754;10.110;2024-03-25T01:53:59;100103.40;;;4.50
65290;BMP180;51893;59.754;10.110;2024-03-25T01:56:31;100110.20;;;4.50
65290;BMP180;51893;59.754;10.110;2024-03-25T01:59:01;100110.00;;;4.50
65290;BMP180;51893;59.754;10.110;2024-03-25T02:01:31;100111.80;;;4.40
65290;BMP180;51893;59.754;10.110;2024-03-25T02:03:58;100110.80;;;4.48
65290;BMP180;51893;59.754;10.110;2024-03-25T02:06:27;100105.20;;;4.50
65290;BMP180;51893;59.754;10.110;2024-03-25T02:08:58;100106.00;;;4.50
65290;BMP180;51893;59.754;10.110;2024-03-25T02:11:27;100107.20;;;4.50
65290;BMP180;51893;59.754;10.110;2024-03-25T02:13:54;100110.00;;;4.40
65290;BMP180;51893;59.754;10.110;2024-03-25T02:16:21;100112.00;;;4.40
65290;BMP180;51893;59.754;10.110;2024-03-25T02:18:47;100109.00;;;4.40
65290;BMP180;51893;59.754;10.110;2024-03-25T02:21:14;100112.40;;;4.30
65290;BMP180;51893;59.754;10.110;2024-03-25T02:23:44;100111.80;;;4.30
65290;BMP180;51893;59.754;10.110;2024-03-25T02:26:11;100113.00;;;4.30
65290;BMP180;51893;59.754;10.110;2024-03-25T02:28:37;100111.80;;;4.30
65290;BMP180;51893;59.754;10.110;2024-03-25T02:31:04;100113.00;;;4.40
65290;BMP180;51893;59.754;10.110;2024-03-25T02:33:31;100121.00;;;4.40
65290;BMP180;51893;59.754;10.110;2024-03-25T02:36:00;100116.00;;;4.50
65290;BMP180;51893;59.754;10.110;2024-03-25T02:38:28;100120.00;;;4.52
65290;BMP180;51893;59.754;10.110;2024-03-25T02:40:56;100116.80;;;4.50
65290;BMP180;51893;59.754;10.110;2024-03-25T02:43:26;100121.00;;;4.50
65290;BMP180;51893;59.754;10.110;2024-03-25T02:45:52;100119.80;;;4.50
65290;BMP180;51893;59.754;10.110;2024-03-25T02:48:19;100121.00;;;4.50
65290;BMP180;51893;59.754;10.110;2024-03-25T02:50:46;100118.20;;;4.44
65290;BMP180;51893;59.754;10.110;2024-03-25T02:53:13;100119.60;;;4.30
65290;BMP180;51893;59.754;10.110;2024-03-25T02:55:41;100123.00;;;4.14
65290;BMP180;51893;59.754;10.110;2024-03-25T02:58:10;100128.60;;;4.10
65290;BMP180;51893;59.754;10.110;2024-03-25T03:00:36;100127.60;;;4.10
65290;BMP180;51893;59.754;10.110;2024-03-25T03:03:07;100130.20;;;4.10
65290;BMP180;51893;59.754;10.110;2024-03-25T03:05:35;100137.20;;;4.10
65290;BMP180;51893;59.754;10.110;2024-03-25T03:08:01;100137.40;;;4.20
65290;BMP180;51893;59.754;10.110;2024-03-25T03:10:29;100138.00;;;4.30
65290;BMP180;51893;59.754;10.110;2024-03-25T03:12:56;100136.20;;;4.30
65290;BMP180;51893;59.754;10.110;2024-03-25T03:15:22;100139.40;;;4.30
65290;BMP180;51893;59.754;10.110;2024-03-25T03:17:49;100140.20;;;4.24
65290;BMP180;51893;59.754;10.110;2024-03-25T03:20:15;100143.20;;;4.20
65290;BMP180;51893;59.754;10.110;2024-03-25T03:22:42;100140.60;;;4.20
65290;BMP180;51893;59.754;10.110;2024-03-25T03:25:09;100142.40;;;4.16
65290;BMP180;51893;59.754;10.110;2024-03-25T03:27:35;100143.40;;;4.10
65290;BMP180;51893;59.754;10.110;2024-03-25T03:30:05;100133.20;;;4.10
65290;BMP180;51893;59.754;10.110;2024-03-25T03:32:32;100137.80;;;4.00
65290;BMP180;51893;59.754;10.110;2024-03-25T03:34:59;100141.20;;;4.00
65290;BMP180;51893;59.754;10.110;2024-03-25T03:37:25;100142.80;;;4.00
65290;BMP180;51893;59.754;10.110;2024-03-25T03:39:52;100139.60;;;4.00
65290;BMP180;51893;59.754;10.110;2024-03-25T03:42:19;100147.00;;;4.06
65290;BMP180;51893;59.754;10.110;2024-03-25T03:44:46;100147.60;;;4.00
65290;BMP180;51893;59.754;10.110;2024-03-25T03:47:12;100148.00;;;4.00
65290;BMP180;51893;59.754;10.110;2024-03-25T03:49:39;100145.80;;;4.04
65290;BMP180;51893;59.754;10.110;2024-03-25T03:52:06;100147.00;;;4.10
65290;BMP180;51893;59.754;10.110;2024-03-25T03:54:32;100149.40;;;4.08
65290;BMP180;51893;59.754;10.110;2024-03-25T03:56:59;100146.60;;;4.10
65290;BMP180;51893;59.754;10.110;2024-03-25T03:59:28;100150.20;;;4.08
65290;BMP180;51893;59.754;10.110;2024-03-25T04:01:55;100150.20;;;4.00
65290;BMP180;51893;59.754;10.110;2024-03-25T04:04:22;100152.20;;;4.00
65290;BMP180;51893;59.754;10.110;2024-03-25T04:06:48;100151.00;;;4.00
65290;BMP180;51893;59.754;10.110;2024-03-25T04:09:17;100153.80;;;4.10
65290;BMP180;51893;59.754;10.110;2024-03-25T04:11:44;100156.60;;;4.10
65290;BMP180;51893;59.754;10.110;2024-03-25T04:14:12;100159.00;;;4.10
65290;BMP180;51893;59.754;10.110;2024-03-25T04:16:39;100156.20;;;4.10
65290;BMP180;51893;59.754;10.110;2024-03-25T04:19:06;100158.20;;;4.12
65290;BMP180;51893;59.754;10.110;2024-03-25T04:21:32;100164.40;;;4.10
65290;BMP180;51893;59.754;10.110;2024-03-25T04:23:59;100166.80;;;4.10
65290;BMP180;51893;59.754;10.110;2024-03-25T04:26:25;100167.20;;;4.10
65290;BMP180;51893;59.754;10.110;2024-03-25T04:28:52;100168.40;;;4.10
65290;BMP180;51893;59.754;10.110;2024-03-25T04:31:19;100171.60;;;4.10
65290;BMP180;51893;59.754;10.110;2024-03-25T04:33:45;100178.40;;;4.00
65290;BMP180;51893;59.754;10.110;2024-03-25T04:36:12;100174.80;;;3.90
65290;BMP180;51893;59.754;10.110;2024-03-25T04:38:39;100177.80;;;4.00
65290;BMP180;51893;59.754;10.110;2024-03-25T04:41:07;100176.80;;;4.10
65290;BMP180;51893;59.754;10.110;2024-03-25T04:43:34;100184.20;;;4.06
65290;BMP180;51893;59.754;10.110;2024-03-25T04:46:01;100183.20;;;4.00
65290;BMP180;51893;59.754;10.110;2024-03-25T04:48:27;100185.20;;;3.90
65290;BMP180;51893;59.754;10.110;2024-03-25T04:50:55;100191.20;;;3.90
65290;BMP180;51893;59.754;10.110;2024-03-25T04:53:21;100191.00;;;3.94
65290;BMP180;51893;59.754;10.110;2024-03-25T04:55:49;100194.60;;;4.00
65290;BMP180;51893;59.754;10.110;2024-03-25T04:58:16;100201.60;;;4.00
65290;BMP180;51893;59.754;10.110;2024-03-25T05:00:43;100209.00;;;3.98
65290;BMP180;51893;59.754;10.110;2024-03-25T05:03:09;100210.80;;;3.90
65290;BMP180;51893;59.754;10.110;2024-03-25T05:05:36;100209.20;;;4.00
65290;BMP180;51893;59.754;10.110;2024-03-25T05:08:05;100209.80;;;4.00
65290;BMP180;51893;59.754;10.110;2024-03-25T05:10:34;100207.40;;;4.08
65290;BMP180;51893;59.754;10.110;2024-03-25T05:13:01;100207.40;;;4.06
65290;BMP180;51893;59.754;10.110;2024-03-25T05:15:30;100211.80;;;4.10
65290;BMP180;51893;59.754;10.110;2024-03-25T05:17:56;100213.20;;;4.00
65290;BMP180;51893;59.754;10.110;2024-03-25T05:20:23;100210.00;;;4.00
65290;BMP180;51893;59.754;10.110;2024-03-25T05:22:50;100220.20;;;3.90
65290;BMP180;51893;59.754;10.110;2024-03-25T05:25:17;100226.40;;;3.90
65290;BMP180;51893;59.754;10.110;2024-03-25T05:27:44;100224.20;;;3.90
65290;BMP180;51893;59.754;10.110;2024-03-25T05:30:11;100224.80;;;3.90
65290;BMP180;51893;59.754;10.110;2024-03-25T05:32:38;100224.80;;;3.90
65290;BMP180;51893;59.754;10.110;2024-03-25T05:35:05;100226.60;;;3.90
65290;BMP180;51893;59.754;10.110;2024-03-25T05:37:33;100227.20;;;3.90
65290;BMP180;51893;59.754;10.110;2024-03-25T05:40:01;100231.40;;;3.90
65290;BMP180;51893;59.754;10.110;2024-03-25T05:42:28;100233.20;;;3.90
65290;BMP180;51893;59.754;10.110;2024-03-25T05:44:55;100241.20;;;3.90
65290;BMP180;51893;59.754;10.110;2024-03-25T05:47:22;100245.20;;;3.90
65290;BMP180;51893;59.754;10.110;2024-03-25T05:49:49;100245.20;;;3.90
65290;BMP180;51893;59.754;10.110;2024-03-25T05:52:16;100247.80;;;3.90
65290;BMP180;51893;59.754;10.110;2024-03-25T05:54:43;100250.00;;;3.98
65290;BMP180;51893;59.754;10.110;2024-03-25T05:57:10;100253.60;;;4.00
65290;BMP180;51893;59.754;10.110;2024-03-25T05:59:37;100254.40;;;4.00
65290;BMP180;51893;59.754;10.110;2024-03-25T06:02:03;100256.20;;;4.00
65290;BMP180;51893;59.754;10.110;2024-03-25T06:04:30;100264.80;;;4.00
65290;BMP180;51893;59.754;10.110;2024-03-25T06:06:57;100258.40;;;4.00
65290;BMP180;51893;59.754;10.110;2024-03-25T06:09:23;100263.20;;;3.90
65290;BMP180;51893;59.754;10.110;2024-03-25T06:11:50;100265.60;;;3.90
65290;BMP180;51893;59.754;10.110;2024-03-25T06:14:18;100264.60;;;3.90
65290;BMP180;51893;59.754;10.110;2024-03-25T06:16:46;100262.20;;;4.00
65290;BMP180;51893;59.754;10.110;2024-03-25T06:19:13;100266.40;;;4.08
65290;BMP180;51893;59.754;10.110;2024-03-25T06:21:39;100265.80;;;4.10
65290;BMP180;51893;59.754;10.110;2024-03-25T06:24:08;100270.60;;;4.20
65290;BMP180;51893;59.754;10.110;2024-03-25T06:26:37;100271.60;;;4.10
65290;BMP180;51893;59.754;10.110;2024-03-25T06:29:04;100272.60;;;4.10
65290;BMP180;51893;59.754;10.110;2024-03-25T06:31:32;100276.60;;;4.10
65290;BMP180;51893;59.754;10.110;2024-03-25T06:34:18;100280.40;;;4.10
65290;BMP180;51893;59.754;10.110;2024-03-25T06:36:47;100280.40;;;4.10
65290;BMP180;51893;59.754;10.110;2024-03-25T06:39:15;100283.80;;;4.10
65290;BMP180;51893;59.754;10.110;2024-03-25T06:41:42;100285.40;;;4.10
65290;BMP180;51893;59.754;10.110;2024-03-25T06:44:09;100287.00;;;4.10
65290;BMP180;51893;59.754;10.110;2024-03-25T06:46:36;100287.40;;;4.10
65290;BMP180;51893;59.754;10.110;2024-03-25T06:49:02;100292.40;;;4.10
65290;BMP180;51893;59.754;10.110;2024-03-25T06:51:29;100295.80;;;4.10
65290;BMP180;51893;59.754;10.110;2024-03-25T06:53:59;100297.60;;;4.20
65290;BMP180;51893;59.754;10.110;2024-03-25T06:56:29;100302.60;;;4.20
65290;BMP180;51893;59.754;10.110;2024-03-25T06:58:56;100304.20;;;4.20
65290;BMP180;51893;59.754;10.110;2024-03-25T07:01:25;100307.80;;;4.20
65290;BMP180;51893;59.754;10.110;2024-03-25T07:03:52;100311.80;;;4.20
65290;BMP180;51893;59.754;10.110;2024-03-25T07:06:23;100310.40;;;4.20
65290;BMP180;51893;59.754;10.110;2024-03-25T07:08:51;100315.60;;;4.20
65290;BMP180;51893;59.754;10.110;2024-03-25T07:11:18;100320.40;;;4.20
65290;BMP180;51893;59.754;10.110;2024-03-25T07:13:44;100328.80;;;4.20
65290;BMP180;51893;59.754;10.110;2024-03-25T07:16:11;100331.40;;;4.10
65290;BMP180;51893;59.754;10.110;2024-03-25T07:18:38;100336.20;;;4.10
65290;BMP180;51893;59.754;10.110;2024-03-25T07:21:06;100342.00;;;4.00
65290;BMP180;51893;59.754;10.110;2024-03-25T07:23:32;100338.40;;;3.92
65290;BMP180;51893;59.754;10.110;2024-03-25T07:25:59;100341.80;;;3.90
65290;BMP180;51893;59.754;10.110;2024-03-25T07:28:28;100344.40;;;4.00
65290;BMP180;51893;59.754;10.110;2024-03-25T07:30:58;100349.80;;;4.00
65290;BMP180;51893;59.754;10.110;2024-03-25T07:33:25;100348.40;;;4.00
65290;BMP180;51893;59.754;10.110;2024-03-25T07:35:54;100353.60;;;4.00
65290;BMP180;51893;59.754;10.110;2024-03-25T07:38:23;100362.80;;;4.06
65290;BMP180;51893;59.754;10.110;2024-03-25T07:40:54;100363.00;;;4.10
65290;BMP180;51893;59.754;10.110;2024-03-25T07:43:20;100361.00;;;4.10
65290;BMP180;51893;59.754;10.110;2024-03-25T07:45:48;100371.60;;;4.00
65290;BMP180;51893;59.754;10.110;2024-03-25T07:48:17;100367.40;;;3.94
65290;BMP180;51893;59.754;10.110;2024-03-25T07:50:45;100367.20;;;3.90
65290;BMP180;51893;59.754;10.110;2024-03-25T07:53:12;100369.60;;;3.90
65290;BMP180;51893;59.754;10.110;2024-03-25T07:55:39;100369.80;;;3.90
65290;BMP180;51893;59.754;10.110;2024-03-25T07:58:06;100375.80;;;4.00
65290;BMP180;51893;59.754;10.110;2024-03-25T08:00:34;100380.00;;;4.00
65290;BMP180;51893;59.754;10.110;2024-03-25T08:03:01;100388.40;;;4.00
65290;BMP180;51893;59.754;10.110;2024-03-25T08:05:31;100396.80;;;4.00
65290;BMP180;51893;59.754;10.110;2024-03-25T08:07:59;100395.00;;;3.90
65290;BMP180;51893;59.754;10.110;2024-03-25T08:10:29;100400.60;;;3.90
65290;BMP180;51893;59.754;10.110;2024-03-25T08:12:56;100403.20;;;3.90
65290;BMP180;51893;59.754;10.110;2024-03-25T08:15:23;100406.20;;;3.90
65290;BMP180;51893;59.754;10.110;2024-03-25T08:17:50;100406.80;;;3.90
65290;BMP180;51893;59.754;10.110;2024-03-25T08:20:17;100407.00;;;3.80
65290;BMP180;51893;59.754;10.110;2024-03-25T08:22:43;100405.60;;;3.80
65290;BMP180;51893;59.754;10.110;2024-03-25T08:25:14;100407.80;;;3.84
65290;BMP180;51893;59.754;10.110;2024-03-25T08:27:43;100416.60;;;3.80
65290;BMP180;51893;59.754;10.110;2024-03-25T08:30:11;100417.20;;;3.76
65290;BMP180;51893;59.754;10.110;2024-03-25T08:32:40;100420.80;;;3.70
65290;BMP180;51893;59.754;10.110;2024-03-25T08:35:07;100417.80;;;3.70
65290;BMP180;51893;59.754;10.110;2024-03-25T08:37:36;100419.20;;;3.70
65290;BMP180;51893;59.754;10.110;2024-03-25T08:40:06;100416.00;;;3.70
65290;BMP180;51893;59.754;10.110;2024-03-25T08:42:34;100411.60;;;3.70
65290;BMP180;51893;59.754;10.110;2024-03-25T08:45:01;100409.80;;;3.62
65290;BMP180;51893;59.754;10.110;2024-03-25T08:47:28;100410.20;;;3.60
65290;BMP180;51893;59.754;10.110;2024-03-25T08:49:56;100407.20;;;3.60
65290;BMP180;51893;59.754;10.110;2024-03-25T08:52:24;100410.60;;;3.60
65290;BMP180;51893;59.754;10.110;2024-03-25T08:54:50;100406.00;;;3.60
65290;BMP180;51893;59.754;10.110;2024-03-25T08:57:17;100411.20;;;3.60
65290;BMP180;51893;59.754;10.110;2024-03-25T08:59:48;100411.20;;;3.70
65290;BMP180;51893;59.754;10.110;2024-03-25T09:02:16;100415.60;;;3.70
65290;BMP180;51893;59.754;10.110;2024-03-25T09:04:45;100413.60;;;3.68
65290;BMP180;51893;59.754;10.110;2024-03-25T09:07:15;100412.80;;;3.60
65290;BMP180;51893;59.754;10.110;2024-03-25T09:09:42;100412.60;;;3.60
65290;BMP180;51893;59.754;10.110;2024-03-25T09:12:28;100411.20;;;3.60
65290;BMP180;51893;59.754;10.110;2024-03-25T09:14:56;100413.80;;;3.60
65290;BMP180;51893;59.754;10.110;2024-03-25T09:17:23;100410.60;;;3.60
65290;BMP180;51893;59.754;10.110;2024-03-25T09:19:54;100412.20;;;3.60
65290;BMP180;51893;59.754;10.110;2024-03-25T09:22:22;100403.40;;;3.60
65290;BMP180;51893;59.754;10.110;2024-03-25T09:24:50;100406.40;;;3.60
65290;BMP180;51893;59.754;10.110;2024-03-25T09:27:16;100406.00;;;3.70
65290;BMP180;51893;59.754;10.110;2024-03-25T09:29:43;100405.40;;;3.60
65290;BMP180;51893;59.754;10.110;2024-03-25T09:32:11;100407.60;;;3.60
65290;BMP180;51893;59.754;10.110;2024-03-25T09:34:42;100405.20;;;3.60
65290;BMP180;51893;59.754;10.110;2024-03-25T09:37:11;100405.60;;;3.60
65290;BMP180;51893;59.754;10.110;2024-03-25T09:39:40;100406.40;;;3.60
65290;BMP180;51893;59.754;10.110;2024-03-25T09:42:15;100407.40;;;3.50
65290;BMP180;51893;59.754;10.110;2024-03-25T09:44:43;100410.80;;;3.50
65290;BMP180;51893;59.754;10.110;2024-03-25T09:47:12;100412.20;;;3.50
65290;BMP180;51893;59.754;10.110;2024-03-25T09:49:40;100412.00;;;3.60
65290;BMP180;51893;59.754;10.110;2024-03-25T09:52:09;100410.40;;;3.60
65290;BMP180;51893;59.754;10.110;2024-03-25T09:54:36;100408.80;;;3.70
65290;BMP180;51893;59.754;10.110;2024-03-25T09:57:06;100413.60;;;3.70
65290;BMP180;51893;59.754;10.110;2024-03-25T09:59:36;100416.00;;;3.70
65290;BMP180;51893;59.754;10.110;2024-03-25T10:02:03;100411.80;;;3.70
65290;BMP180;51893;59.754;10.110;2024-03-25T10:04:30;100412.40;;;3.64
65290;BMP180;51893;59.754;10.110;2024-03-25T10:06:56;100416.00;;;3.60
65290;BMP180;51893;59.754;10.110;2024-03-25T10:09:23;100418.00;;;3.60
65290;BMP180;51893;59.754;10.110;2024-03-25T10:11:51;100418.80;;;3.60
65290;BMP180;51893;59.754;10.110;2024-03-25T10:14:21;100419.80;;;3.60
65290;BMP180;51893;59.754;10.110;2024-03-25T10:16:50;100419.00;;;3.60
65290;BMP180;51893;59.754;10.110;2024-03-25T10:19:19;100416.80;;;3.70
65290;BMP180;51893;59.754;10.110;2024-03-25T10:21:48;100422.60;;;3.70
65290;BMP180;51893;59.754;10.110;2024-03-25T10:24:16;100422.00;;;3.68
65290;BMP180;51893;59.754;10.110;2024-03-25T10:26:43;100421.00;;;3.62
65290;BMP180;51893;59.754;10.110;2024-03-25T10:29:15;100427.20;;;3.70
65290;BMP180;51893;59.754;10.110;2024-03-25T10:31:46;100431.60;;;3.76
65290;BMP180;51893;59.754;10.110;2024-03-25T10:34:13;100430.20;;;3.70
65290;BMP180;51893;59.754;10.110;2024-03-25T10:36:42;100429.00;;;3.70
65290;BMP180;51893;59.754;10.110;2024-03-25T10:39:12;100419.80;;;3.70
65290;BMP180;51893;59.754;10.110;2024-03-25T10:41:41;100416.00;;;3.70
65290;BMP180;51893;59.754;10.110;2024-03-25T10:44:09;100406.40;;;3.70
65290;BMP180;51893;59.754;10.110;2024-03-25T10:46:38;100404.00;;;3.80
65290;BMP180;51893;59.754;10.110;2024-03-25T10:49:22;100406.60;;;3.80
65290;BMP180;51893;59.754;10.110;2024-03-25T10:51:51;100411.40;;;3.90
65290;BMP180;51893;59.754;10.110;2024-03-25T10:54:20;100415.60;;;3.90
65290;BMP180;51893;59.754;10.110;2024-03-25T10:56:48;100411.40;;;4.00
65290;BMP180;51893;59.754;10.110;2024-03-25T10:59:20;100407.00;;;4.02
65290;BMP180;51893;59.754;10.110;2024-03-25T11:01:53;100406.40;;;4.10
65290;BMP180;51893;59.754;10.110;2024-03-25T11:04:21;100403.40;;;4.08
65290;BMP180;51893;59.754;10.110;2024-03-25T11:06:48;100396.40;;;4.00
65290;BMP180;51893;59.754;10.110;2024-03-25T11:09:23;100402.40;;;4.00
65290;BMP180;51893;59.754;10.110;2024-03-25T11:11:53;100396.60;;;4.00
65290;BMP180;51893;59.754;10.110;2024-03-25T11:14:19;100399.60;;;4.00
65290;BMP180;51893;59.754;10.110;2024-03-25T11:16:54;100398.80;;;4.00
65290;BMP180;51893;59.754;10.110;2024-03-25T11:19:26;100401.00;;;4.02
65290;BMP180;51893;59.754;10.110;2024-03-25T11:21:54;100399.60;;;4.04
65290;BMP180;51893;59.754;10.110;2024-03-25T11:24:30;100403.40;;;4.00
65290;BMP180;51893;59.754;10.110;2024-03-25T11:26:57;100402.60;;;3.92
65290;BMP180;51893;59.754;10.110;2024-03-25T11:29:28;100401.60;;;3.90
65290;BMP180;51893;59.754;10.110;2024-03-25T11:32:03;100398.60;;;3.90
65290;BMP180;51893;59.754;10.110;2024-03-25T11:34:35;100399.80;;;3.90
65290;BMP180;51893;59.754;10.110;2024-03-25T11:37:02;100402.00;;;3.90
65290;BMP180;51893;59.754;10.110;2024-03-25T11:39:36;100405.00;;;3.92
65290;BMP180;51893;59.754;10.110;2024-03-25T11:42:08;100401.40;;;4.00
65290;BMP180;51893;59.754;10.110;2024-03-25T11:44:38;100399.80;;;3.90
65290;BMP180;51893;59.754;10.110;2024-03-25T11:47:16;100399.40;;;3.90
65290;BMP180;51893;59.754;10.110;2024-03-25T11:49:44;100401.00;;;3.90
65290;BMP180;51893;59.754;10.110;2024-03-25T11:52:13;100401.20;;;3.82
65290;BMP180;51893;59.754;10.110;2024-03-25T11:54:43;100404.20;;;3.80
65290;BMP180;51893;59.754;10.110;2024-03-25T11:57:10;100406.60;;;3.80
65290;BMP180;51893;59.754;10.110;2024-03-25T11:59:41;100400.60;;;3.80
65290;BMP180;51893;59.754;10.110;2024-03-25T12:02:09;100399.60;;;3.80
65290;BMP180;51893;59.754;10.110;2024-03-25T12:04:37;100397.80;;;3.80
65290;BMP180;51893;59.754;10.110;2024-03-25T12:07:07;100392.60;;;3.80
65290;BMP180;51893;59.754;10.110;2024-03-25T12:09:37;100396.20;;;3.70
65290;BMP180;51893;59.754;10.110;2024-03-25T12:12:26;100392.20;;;3.70
65290;BMP180;51893;59.754;10.110;2024-03-25T12:15:01;100386.00;;;3.62
65290;BMP180;51893;59.754;10.110;2024-03-25T12:17:31;100381.60;;;3.68
65290;BMP180;51893;59.754;10.110;2024-03-25T12:20:03;100379.20;;;3.70
65290;BMP180;51893;59.754;10.110;2024-03-25T12:22:32;100378.80;;;3.70
65290;BMP180;51893;59.754;10.110;2024-03-25T12:25:05;100377.80;;;3.70
65290;BMP180;51893;59.754;10.110;2024-03-25T12:27:36;100375.60;;;3.74
65290;BMP180;51893;59.754;10.110;2024-03-25T12:30:06;100370.00;;;3.80
65290;BMP180;51893;59.754;10.110;2024-03-25T12:35:14;100367.60;;;4.00
65290;BMP180;51893;59.754;10.110;2024-03-25T12:37:48;100364.80;;;4.08
65290;BMP180;51893;59.754;10.110;2024-03-25T12:40:28;100367.60;;;4.12
65290;BMP180;51893;59.754;10.110;2024-03-25T12:42:55;100366.20;;;4.20
65290;BMP180;51893;59.754;10.110;2024-03-25T12:45:24;100361.60;;;4.10
65290;BMP180;51893;59.754;10.110;2024-03-25T12:47:53;100361.40;;;4.18
65290;BMP180;51893;59.754;10.110;2024-03-25T12:50:20;100358.20;;;4.20
65290;BMP180;51893;59.754;10.110;2024-03-25T12:52:51;100361.60;;;4.40
65290;BMP180;51893;59.754;10.110;2024-03-25T12:55:18;100361.20;;;4.50
65290;BMP180;51893;59.754;10.110;2024-03-25T12:57:46;100355.40;;;4.54
65290;BMP180;51893;59.754;10.110;2024-03-25T13:00:13;100356.00;;;4.64
65290;BMP180;51893;59.754;10.110;2024-03-25T13:02:41;100363.80;;;4.70
65290;BMP180;51893;59.754;10.110;2024-03-25T13:05:08;100366.00;;;4.70
65290;BMP180;51893;59.754;10.110;2024-03-25T13:07:35;100367.40;;;4.68
65290;BMP180;51893;59.754;10.110;2024-03-25T13:10:06;100368.20;;;4.70
65290;BMP180;51893;59.754;10.110;2024-03-25T13:12:33;100365.60;;;4.60
65290;BMP180;51893;59.754;10.110;2024-03-25T13:15:00;100360.40;;;4.60
65290;BMP180;51893;59.754;10.110;2024-03-25T13:17:32;100354.40;;;4.70
65290;BMP180;51893;59.754;10.110;2024-03-25T13:19:59;100361.20;;;4.70
65290;BMP180;51893;59.754;10.110;2024-03-25T13:22:26;100361.80;;;4.70
65290;BMP180;51893;59.754;10.110;2024-03-25T13:24:53;100362.20;;;4.80
65290;BMP180;51893;59.754;10.110;2024-03-25T13:27:20;100360.00;;;4.80
65290;BMP180;51893;59.754;10.110;2024-03-25T13:29:47;100356.80;;;4.74
65290;BMP180;51893;59.754;10.110;2024-03-25T13:32:14;100355.00;;;4.78
65290;BMP180;51893;59.754;10.110;2024-03-25T13:34:41;100350.20;;;4.70
65290;BMP180;51893;59.754;10.110;2024-03-25T13:37:08;100350.60;;;4.70
65290;BMP180;51893;59.754;10.110;2024-03-25T13:39:38;100350.60;;;4.70
65290;BMP180;51893;59.754;10.110;2024-03-25T13:42:05;100353.80;;;4.68
65290;BMP180;51893;59.754;10.110;2024-03-25T13:44:31;100358.40;;;4.70
65290;BMP180;51893;59.754;10.110;2024-03-25T13:47:01;100363.20;;;4.70
65290;BMP180;51893;59.754;10.110;2024-03-25T13:49:28;100359.40;;;4.70
65290;BMP180;51893;59.754;10.110;2024-03-25T13:51:58;100359.60;;;4.62
65290;BMP180;51893;59.754;10.110;2024-03-25T13:54:26;100359.40;;;4.60
65290;BMP180;51893;59.754;10.110;2024-03-25T13:56:57;100356.80;;;4.60
65290;BMP180;51893;59.754;10.110;2024-03-25T13:59:25;100359.00;;;4.60
65290;BMP180;51893;59.754;10.110;2024-03-25T14:01:53;100356.20;;;4.60
65290;BMP180;51893;59.754;10.110;2024-03-25T14:04:22;100360.00;;;4.60